createdAt,value
2022-10-07T00:03:34.706Z,4.57
2022-10-07T00:09:36.486Z,4.17
2022-10-07T00:21:55.182Z,4.50
2022-10-07T00:27:57.056Z,4.63
2022-10-07T00:34:05.585Z,4.50
2022-10-07T00:40:07.786Z,3.93
2022-10-07T00:46:37.098Z,4.20
2022-10-07T00:52:43.369Z,4.37
2022-10-07T00:58:48.142Z,4.73
2022-10-07T01:04:51.772Z,5.03
2022-10-07T01:11:14.200Z,5.07
2022-10-07T01:17:34.698Z,4.90
2022-10-07T01:23:42.693Z,4.63
2022-10-07T01:30:04.647Z,5.10
2022-10-07T01:36:14.662Z,4.13
2022-10-07T01:42:17.723Z,4.83
2022-10-07T01:48:21.195Z,4.63
2022-10-07T01:54:28.588Z,5.83
2022-10-07T02:00:31.418Z,5.20
2022-10-07T02:06:59.412Z,5.47
2022-10-07T02:13:27.027Z,5.00
2022-10-07T02:19:36.229Z,4.90
2022-10-07T02:25:47.294Z,5.10
2022-10-07T02:31:51.721Z,4.77
2022-10-07T02:38:03.189Z,5.33
2022-10-07T02:44:22.256Z,5.53
2022-10-07T02:50:27.646Z,5.00
2022-10-07T03:03:11.357Z,5.57
2022-10-07T03:09:21.905Z,4.47
2022-10-07T03:15:25.853Z,4.80
2022-10-07T03:21:28.203Z,5.60
2022-10-07T03:27:30.221Z,6.03
2022-10-07T03:33:32.135Z,5.13
2022-10-07T03:39:33.936Z,5.33
2022-10-07T03:45:37.543Z,5.23
2022-10-07T03:51:42.402Z,5.53
2022-10-07T03:57:59.679Z,5.93
2022-10-07T04:04:02.297Z,5.67
2022-10-07T04:10:04.399Z,5.07
2022-10-07T04:16:08.457Z,5.37
2022-10-07T04:22:10.349Z,5.40
2022-10-07T04:28:18.656Z,5.47
2022-10-07T04:34:23.608Z,6.00
2022-10-07T04:46:51.194Z,6.00
2022-10-07T04:52:53.976Z,6.03
2022-10-07T04:58:56.475Z,5.67
2022-10-07T05:11:23.543Z,6.50
2022-10-07T05:17:26.138Z,6.83
2022-10-07T05:49:08.781Z,6.30
2022-10-07T06:01:41.704Z,5.50
2022-10-07T06:14:04.140Z,6.00
2022-10-07T06:39:59.356Z,6.63
2022-10-07T07:18:30.381Z,6.10
2022-10-07T12:16:22.445Z,3.88
2022-10-07T13:15:59.623Z,5.53
2022-10-07T14:12:52.266Z,4.35
2022-10-07T14:19:07.026Z,5.57
2022-10-07T14:25:22.267Z,7.13
2022-10-07T14:31:45.824Z,9.88
2022-10-07T14:37:48.806Z,8.75
2022-10-07T14:43:52.112Z,5.68
2022-10-07T14:50:00.884Z,5.78
2022-10-07T14:56:02.895Z,6.95
2022-10-07T15:08:21.705Z,5.35
2022-10-07T15:14:23.868Z,4.75
2022-10-07T15:20:26.576Z,8.57
2022-10-07T15:26:28.943Z,12.68
2022-10-07T15:32:30.893Z,10.73
2022-10-07T15:38:32.684Z,9.35
2022-10-07T15:44:34.579Z,10.05
2022-10-07T15:50:36.574Z,6.97
2022-10-07T15:56:39.528Z,3.92
2022-10-07T16:02:44.008Z,3.95
2022-10-07T16:08:46.098Z,2.92
2022-10-07T16:21:09.933Z,7.88
2022-10-07T16:27:11.748Z,9.00
2022-10-07T16:33:13.501Z,6.63
2022-10-07T16:39:18.978Z,6.80
2022-10-07T16:45:21.266Z,7.90
2022-10-07T16:51:33.358Z,23.40
2022-10-07T16:57:37.407Z,18.07
2022-10-07T17:03:45.371Z,13.40
2022-10-07T17:09:47.180Z,7.40
2022-10-07T17:15:52.698Z,9.17
2022-10-07T17:21:56.003Z,6.43
2022-10-07T17:27:57.865Z,14.57
2022-10-07T17:34:00.092Z,17.57
2022-10-07T17:40:01.891Z,40.53
2022-10-07T17:46:05.252Z,22.33
2022-10-07T17:52:09.091Z,16.97
2022-10-07T17:58:10.806Z,12.20
2022-10-07T18:04:17.116Z,9.07
2022-10-07T18:10:21.823Z,8.03
2022-10-07T18:16:23.917Z,10.60
2022-10-07T18:22:25.852Z,8.67
2022-10-07T18:28:27.668Z,9.67
2022-10-07T18:34:29.475Z,6.77
2022-10-07T18:40:31.329Z,6.43
2022-10-07T18:46:33.309Z,7.03
2022-10-07T18:52:35.069Z,6.50
2022-10-07T18:58:39.156Z,6.50
2022-10-07T19:04:40.968Z,8.00
2022-10-07T19:10:43.184Z,6.33
2022-10-07T19:16:49.249Z,7.67
2022-10-07T19:22:51.284Z,7.73
2022-10-07T19:28:54.553Z,7.17
2022-10-07T19:34:56.330Z,5.83
2022-10-07T19:40:58.059Z,8.10
2022-10-07T19:47:01.489Z,8.10
2022-10-07T19:53:05.139Z,5.70
2022-10-07T19:59:09.214Z,6.70
2022-10-07T20:05:10.908Z,9.17
2022-10-07T20:11:13.363Z,6.50
2022-10-07T20:17:15.158Z,6.40
2022-10-07T20:23:16.952Z,7.03
2022-10-07T20:29:24.087Z,6.80
2022-10-07T20:35:31.741Z,7.33
2022-10-07T20:41:53.861Z,7.27
2022-10-07T20:47:59.609Z,8.03
2022-10-07T20:54:03.550Z,7.10
2022-10-07T21:00:09.452Z,7.33
2022-10-07T21:06:11.220Z,7.37
2022-10-07T21:12:16.014Z,6.90
2022-10-07T21:18:19.197Z,5.87
2022-10-07T21:24:20.879Z,6.13
2022-10-07T21:30:22.694Z,7.30
2022-10-07T21:36:24.557Z,6.17
2022-10-07T21:42:26.339Z,7.23
2022-10-07T21:48:31.612Z,6.40
2022-10-07T21:54:33.349Z,5.67
2022-10-07T22:00:36.172Z,7.87
2022-10-07T22:06:56.331Z,6.47
2022-10-07T22:12:58.068Z,4.83
2022-10-07T22:18:59.840Z,5.80
2022-10-07T22:25:01.547Z,7.17
2022-10-07T22:31:05.689Z,6.90
2022-10-07T22:37:07.477Z,4.27
2022-10-07T22:43:09.648Z,4.97
2022-10-07T22:49:12.037Z,5.53
2022-10-07T22:55:13.806Z,4.90
2022-10-07T23:01:16.796Z,6.17
2022-10-07T23:07:18.845Z,5.10
2022-10-07T23:13:20.549Z,5.13
2022-10-07T23:19:22.305Z,7.03
2022-10-07T23:25:25.159Z,5.70
2022-10-07T23:31:28.929Z,4.40
2022-10-07T23:37:30.697Z,3.90
2022-10-07T23:43:33.689Z,5.40
2022-10-07T23:49:35.444Z,5.10
2022-10-07T23:55:37.203Z,4.10
